Time;durP1;ratioP1;P1;durP2;ratioP2;P2;SDS_P1;SDS_P2;PMS_P1;PMS_P2;Temp;Humidity;BMP_temperature;BMP_pressure;BME280_temperature;BME280_humidity;BME280_pressure;Samples;Min_cycle;Max_cycle;Signal;HPM_P1;HPM_P2
2023/07/15 00:00:26;;;;;;;4.97;1.65;;;21.00;99.90;;;;;;4161178;28;20107;-55
2023/07/15 00:02:46;;;;;;;1.67;1.58;;;20.80;99.90;;;;;;4165812;28;20072;-55
2023/07/15 00:05:20;;;;;;;2.55;1.70;;;20.80;99.90;;;;;;4167348;28;20320;-56
2023/07/15 00:07:40;;;;;;;1.73;1.63;;;20.80;99.90;;;;;;4168437;28;20080;-55
2023/07/15 00:10:00;;;;;;;2.05;1.45;;;20.70;99.90;;;;;;4167862;28;20052;-55
2023/07/15 00:12:20;;;;;;;4.32;2.05;;;20.70;99.90;;;;;;4168228;28;20044;-55
2023/07/15 00:14:40;;;;;;;3.72;2.08;;;20.70;99.90;;;;;;4165170;28;20080;-55
2023/07/15 00:17:00;;;;;;;1.80;1.70;;;20.60;99.90;;;;;;4165566;28;20284;-55
2023/07/15 00:19:20;;;;;;;1.50;1.40;;;20.50;99.90;;;;;;4164779;28;20391;-55
2023/07/15 00:21:40;;;;;;;3.88;2.58;;;20.10;99.90;;;;;;4167975;28;20096;-55
2023/07/15 00:24:00;;;;;;;2.15;2.00;;;19.80;99.90;;;;;;4170809;28;20051;-55
2023/07/15 00:26:24;;;;;;;2.78;2.20;;;19.80;99.90;;;;;;4165407;28;20053;-55
2023/07/15 00:28:44;;;;;;;2.72;2.63;;;20.10;99.90;;;;;;4159707;28;20048;-56
2023/07/15 00:31:12;;;;;;;2.35;2.05;;;20.30;99.90;;;;;;4162413;28;20049;-55
2023/07/15 00:33:33;;;;;;;3.50;2.78;;;20.40;99.90;;;;;;4145766;28;20293;-55
2023/07/15 00:35:53;;;;;;;3.15;2.95;;;20.50;99.90;;;;;;4167296;28;20045;-56
2023/07/15 00:38:13;;;;;;;3.17;2.00;;;20.50;99.90;;;;;;4170703;28;20422;-55
2023/07/15 00:40:38;;;;;;;2.83;2.58;;;20.60;99.90;;;;;;4164056;28;20045;-55
2023/07/15 00:43:35;;;;;;;2.08;1.85;;;20.50;99.90;;;;;;4168225;28;20396;-55
2023/07/15 00:46:11;;;;;;;2.28;1.60;;;20.50;99.90;;;;;;4165452;28;20048;-55
2023/07/15 00:48:34;;;;;;;3.42;2.28;;;20.50;99.90;;;;;;4166214;28;20049;-54
2023/07/15 00:50:53;;;;;;;;;;;20.20;99.90;;;;;;4165191;28;20100;-55
2023/07/15 00:53:14;;;;;;;2.50;2.28;;;20.10;99.90;;;;;;4164671;28;19936;-55
2023/07/15 00:55:34;;;;;;;2.67;1.95;;;19.90;99.90;;;;;;4165928;28;20044;-55
2023/07/15 00:57:55;;;;;;;2.83;2.65;;;19.90;99.90;;;;;;4165235;28;20241;-55
2023/07/15 01:00:15;;;;;;;5.30;2.25;;;19.90;99.90;;;;;;4164084;28;20304;-55
2023/07/15 01:02:37;;;;;;;2.40;2.20;;;19.90;99.90;;;;;;4184662;22;20052;-75
2023/07/15 01:04:57;;;;;;;2.55;2.25;;;19.70;99.90;;;;;;4178840;28;20052;-75
2023/07/15 01:07:17;;;;;;;5.15;2.00;;;19.70;99.90;;;;;;4182795;28;20090;-76
2023/07/15 01:09:39;;;;;;;3.35;2.45;;;19.70;99.90;;;;;;4182042;28;20044;-77
2023/07/15 01:11:59;;;;;;;2.63;2.40;;;19.90;99.90;;;;;;4179210;28;20095;-75
2023/07/15 01:14:19;;;;;;;2.95;2.75;;;19.90;99.90;;;;;;4182777;28;20079;-75
2023/07/15 01:16:42;;;;;;;2.67;2.47;;;19.90;99.90;;;;;;4174667;28;20125;-75
2023/07/15 01:19:05;;;;;;;5.47;2.30;;;19.80;99.90;;;;;;4184404;28;20069;-75
2023/07/15 01:21:29;;;;;;;;;;;19.60;99.90;;;;;;4184840;28;20053;-75
2023/07/15 01:23:49;;;;;;;3.13;2.92;;;19.70;99.90;;;;;;4184989;28;20147;-76
2023/07/15 01:26:08;;;;;;;2.20;2.00;;;19.70;99.90;;;;;;4184231;28;20424;-76
2023/07/15 01:28:28;;;;;;;3.67;2.35;;;19.90;99.90;;;;;;4184018;28;20098;-76
2023/07/15 01:30:48;;;;;;;2.28;2.08;;;19.80;99.90;;;;;;4187206;28;20286;-75
2023/07/15 01:33:08;;;;;;;2.08;1.98;;;19.90;99.90;;;;;;4181573;28;20056;-75
2023/07/15 01:35:29;;;;;;;2.97;1.88;;;19.80;99.90;;;;;;4182780;28;20051;-75
2023/07/15 01:37:49;;;;;;;2.58;2.47;;;19.80;99.90;;;;;;4184241;28;20334;-75
2023/07/15 01:40:10;;;;;;;2.53;2.33;;;19.70;99.90;;;;;;4170561;28;20057;-76
2023/07/15 01:42:29;;;;;;;2.42;2.33;;;19.60;99.90;;;;;;4185683;28;20051;-87
2023/07/15 01:44:50;;;;;;;2.47;2.38;;;19.60;99.90;;;;;;4180915;28;20240;-86
2023/07/15 01:47:10;;;;;;;3.40;2.78;;;19.50;99.90;;;;;;4177883;28;20056;-86
2023/07/15 01:49:30;;;;;;;5.78;2.55;;;19.20;99.90;;;;;;4183298;28;20151;-86
2023/07/15 01:51:51;;;;;;;2.35;2.25;;;19.20;99.90;;;;;;4167815;28;20076;-78
2023/07/15 01:54:11;;;;;;;4.47;2.92;;;19.40;99.90;;;;;;4178312;28;20387;-79
2023/07/15 01:56:31;;;;;;;2.33;2.13;;;19.50;99.90;;;;;;4174406;28;20072;-78
2023/07/15 01:58:51;;;;;;;2.75;2.22;;;19.60;99.90;;;;;;4189400;28;20048;-78
2023/07/15 02:01:11;;;;;;;2.85;2.65;;;19.50;99.90;;;;;;4163885;28;20091;-78
2023/07/15 02:03:31;;;;;;;2.97;2.45;;;19.30;99.90;;;;;;4181886;28;20135;-80
2023/07/15 02:05:51;;;;;;;2.65;2.45;;;19.30;99.90;;;;;;4183057;28;20152;-80
2023/07/15 02:08:11;;;;;;;4.07;3.00;;;19.40;99.90;;;;;;4187225;28;20095;-80
2023/07/15 02:10:32;;;;;;;2.45;1.90;;;19.40;99.90;;;;;;4172025;28;20037;-80
2023/07/15 02:12:52;;;;;;;3.28;3.17;;;19.20;99.90;;;;;;4182288;28;20063;-80
2023/07/15 02:15:11;;;;;;;2.55;2.35;;;19.20;99.90;;;;;;4187166;28;20048;-80
2023/07/15 02:17:31;;;;;;;3.72;2.35;;;19.20;99.90;;;;;;4186405;28;20397;-80
2023/07/15 02:19:52;;;;;;;2.28;1.85;;;19.10;99.90;;;;;;4171193;28;20048;-80
2023/07/15 02:22:13;;;;;;;2.83;2.70;;;19.00;99.90;;;;;;4181548;28;20267;-80
2023/07/15 02:24:33;;;;;;;3.10;2.90;;;18.90;99.90;;;;;;4181554;28;20634;-80
2023/07/15 02:26:53;;;;;;;2.55;2.35;;;18.80;99.90;;;;;;4183453;28;20397;-80
2023/07/15 02:29:13;;;;;;;2.60;2.40;;;18.90;99.90;;;;;;4185630;28;20079;-80
2023/07/15 02:31:34;;;;;;;4.57;2.80;;;19.00;99.90;;;;;;4185176;28;20251;-80
2023/07/15 02:33:54;;;;;;;2.97;2.72;;;18.90;99.90;;;;;;4185875;28;20067;-80
2023/07/15 02:36:16;;;;;;;2.28;2.17;;;18.80;99.90;;;;;;4184262;28;20440;-80
2023/07/15 02:38:36;;;;;;;2.55;2.45;;;18.80;99.90;;;;;;4182639;28;20074;-80
2023/07/15 02:40:56;;;;;;;3.38;2.60;;;18.80;99.90;;;;;;4168666;28;20056;-80
2023/07/15 02:43:19;;;;;;;2.92;2.72;;;18.80;99.90;;;;;;4184390;28;20116;-80
2023/07/15 02:45:39;;;;;;;5.45;2.95;;;18.70;99.90;;;;;;4184411;28;20051;-80
2023/07/15 02:47:59;;;;;;;2.90;2.80;;;18.60;99.90;;;;;;4187631;28;20105;-80
2023/07/15 02:50:19;;;;;;;2.75;2.65;;;18.60;99.90;;;;;;4177203;28;20051;-80
2023/07/15 02:52:42;;;;;;;3.92;2.55;;;18.50;99.90;;;;;;4178566;28;20048;-80
2023/07/15 02:55:04;;;;;;;4.10;3.05;;;18.60;99.90;;;;;;4167010;28;20060;-80
2023/07/15 02:57:24;;;;;;;3.38;3.17;;;18.60;99.90;;;;;;4164666;28;20083;-80
2023/07/15 02:59:44;;;;;;;4.40;2.95;;;18.50;99.90;;;;;;4173039;28;20084;-80
2023/07/15 03:02:04;;;;;;;3.65;3.45;;;18.50;99.90;;;;;;4177695;28;20055;-80
2023/07/15 03:04:26;;;;;;;3.50;2.38;;;18.50;99.90;;;;;;4171845;28;20628;-80
2023/07/15 03:06:46;;;;;;;2.65;2.50;;;18.60;99.90;;;;;;4183791;28;20285;-80
2023/07/15 03:09:06;;;;;;;4.88;2.78;;;18.70;99.90;;;;;;4181205;28;20055;-80
2023/07/15 03:11:26;;;;;;;4.45;3.75;;;18.70;99.90;;;;;;4179508;28;20040;-80
2023/07/15 03:13:46;;;;;;;4.28;3.95;;;18.60;99.90;;;;;;4187990;28;20090;-76
2023/07/15 03:16:06;;;;;;;2.95;2.85;;;18.50;99.90;;;;;;4172377;28;20052;-74
2023/07/15 03:18:26;;;;;;;2.80;2.70;;;18.40;99.90;;;;;;4186110;28;20105;-74
2023/07/15 03:20:46;;;;;;;3.28;3.05;;;18.30;99.90;;;;;;4185740;28;20053;-74
2023/07/15 03:23:07;;;;;;;4.18;3.55;;;18.30;99.90;;;;;;4182768;28;20044;-74
2023/07/15 03:25:27;;;;;;;3.60;3.40;;;18.30;99.90;;;;;;4186179;28;20235;-74
2023/07/15 03:27:48;;;;;;;3.95;3.20;;;18.30;99.90;;;;;;4181228;28;20092;-74
2023/07/15 03:30:09;;;;;;;3.70;3.50;;;18.30;99.90;;;;;;4184827;28;20278;-73
2023/07/15 03:32:29;;;;;;;3.30;3.00;;;18.20;99.90;;;;;;4171494;28;20409;-74
2023/07/15 03:34:49;;;;;;;4.22;2.58;;;18.20;99.90;;;;;;4182082;28;20059;-74
2023/07/15 03:37:09;;;;;;;3.17;2.72;;;18.10;99.90;;;;;;4184602;28;20070;-74
2023/07/15 03:39:30;;;;;;;4.03;2.95;;;18.10;99.90;;;;;;4181284;28;20048;-74
2023/07/15 03:41:50;;;;;;;3.75;3.10;;;18.20;99.90;;;;;;4165920;28;20088;-74
2023/07/15 03:44:12;;;;;;;2.97;2.85;;;18.30;99.90;;;;;;4181964;28;20136;-75
2023/07/15 03:46:34;;;;;;;3.70;2.88;;;18.20;99.90;;;;;;4182243;28;20055;-74
2023/07/15 03:48:54;;;;;;;5.50;3.00;;;18.10;99.90;;;;;;4185859;28;20064;-74
2023/07/15 03:51:14;;;;;;;3.58;3.28;;;18.00;99.90;;;;;;4170723;28;20298;-74
2023/07/15 03:53:34;;;;;;;3.30;3.08;;;17.90;99.90;;;;;;4178607;28;20111;-74
2023/07/15 03:55:54;;;;;;;4.30;3.08;;;17.90;99.90;;;;;;4181942;28;20056;-73
2023/07/15 03:58:14;;;;;;;4.13;3.83;;;17.80;99.90;;;;;;4181679;28;20103;-73
2023/07/15 04:00:34;;;;;;;3.03;2.92;;;17.80;99.90;;;;;;4172741;28;20269;-74
2023/07/15 04:02:55;;;;;;;3.10;3.00;;;17.90;99.90;;;;;;4183878;28;20083;-74
2023/07/15 04:05:16;;;;;;;4.55;4.28;;;17.90;99.90;;;;;;4184495;28;20044;-74
2023/07/15 04:07:36;;;;;;;4.57;3.17;;;17.90;99.90;;;;;;4174501;28;20064;-74
2023/07/15 04:09:55;;;;;;;4.38;4.15;;;18.00;99.90;;;;;;4178595;28;20293;-75
2023/07/15 04:12:16;;;;;;;3.60;3.40;;;18.00;99.90;;;;;;4164705;28;20107;-73
2023/07/15 04:14:36;;;;;;;4.13;3.92;;;18.10;99.90;;;;;;4177209;28;20091;-75
2023/07/15 04:16:56;;;;;;;4.28;3.88;;;18.00;99.90;;;;;;4175588;28;20049;-74
2023/07/15 04:19:16;;;;;;;4.65;4.30;;;18.00;99.90;;;;;;4174462;28;20375;-74
2023/07/15 04:21:37;;;;;;;4.45;4.03;;;17.90;99.90;;;;;;4187250;28;20320;-84
2023/07/15 04:23:57;;;;;;;8.15;4.35;;;17.90;99.90;;;;;;4184316;28;20063;-74
2023/07/15 04:26:22;;;;;;;6.47;3.38;;;18.00;99.90;;;;;;4166125;28;20083;-75
2023/07/15 04:28:42;;;;;;;4.13;3.67;;;18.00;99.90;;;;;;4172470;28;20099;-74
2023/07/15 04:31:02;;;;;;;4.25;4.05;;;18.10;99.90;;;;;;4178830;28;20111;-74
2023/07/15 04:33:23;;;;;;;4.13;3.78;;;18.10;99.90;;;;;;4184597;28;20064;-74
2023/07/15 04:35:46;;;;;;;6.38;4.68;;;18.20;99.90;;;;;;4185969;28;20048;-74
2023/07/15 04:38:06;;;;;;;4.25;3.83;;;18.10;99.90;;;;;;4163902;28;20099;-74
2023/07/15 04:40:26;;;;;;;3.63;3.53;;;18.10;99.90;;;;;;4180863;28;20048;-74
2023/07/15 04:42:46;;;;;;;4.45;4.07;;;18.20;99.90;;;;;;4179216;28;20048;-74
2023/07/15 04:45:07;;;;;;;3.92;3.72;;;18.30;99.90;;;;;;4184715;28;20152;-75
2023/07/15 04:47:27;;;;;;;5.20;4.03;;;18.20;99.90;;;;;;4181601;28;20248;-74
2023/07/15 04:49:47;;;;;;;3.75;3.45;;;18.20;99.90;;;;;;4170588;28;20071;-74
2023/07/15 04:52:07;;;;;;;5.78;2.83;;;18.20;99.90;;;;;;4187010;28;20051;-74
2023/07/15 04:54:27;;;;;;;4.70;3.53;;;18.20;99.90;;;;;;4174238;28;20049;-74
2023/07/15 04:56:47;;;;;;;4.78;4.45;;;18.30;99.90;;;;;;4173893;28;20056;-74
2023/07/15 04:59:08;;;;;;;3.90;3.60;;;18.40;99.90;;;;;;4181495;28;20047;-74
2023/07/15 05:01:28;;;;;;;3.75;3.50;;;18.50;99.90;;;;;;4183970;28;20149;-74
2023/07/15 05:03:48;;;;;;;2.90;2.65;;;18.50;99.90;;;;;;4184445;28;20269;-77
2023/07/15 05:06:08;;;;;;;5.53;3.80;;;18.40;99.90;;;;;;4187002;28;20127;-76
2023/07/15 05:08:28;;;;;;;3.78;3.58;;;18.50;99.90;;;;;;4185268;28;20094;-76
2023/07/15 05:10:50;;;;;;;3.55;3.35;;;18.50;99.90;;;;;;4187373;28;20117;-76
2023/07/15 05:13:10;;;;;;;3.47;3.00;;;18.60;99.90;;;;;;4183637;28;20080;-76
2023/07/15 05:15:32;;;;;;;3.80;3.60;;;18.50;99.90;;;;;;4182312;28;20052;-76
2023/07/15 05:17:52;;;;;;;3.95;3.75;;;18.60;99.90;;;;;;4182612;28;20128;-75
2023/07/15 05:20:13;;;;;;;8.80;3.92;;;18.60;99.90;;;;;;4183988;28;20082;-78
2023/07/15 05:22:33;;;;;;;3.42;2.92;;;18.60;99.90;;;;;;4186158;28;20080;-82
2023/07/15 05:24:53;;;;;;;5.28;3.55;;;18.60;99.90;;;;;;4174218;28;20055;-76
2023/07/15 05:27:13;;;;;;;8.63;4.15;;;18.60;99.90;;;;;;4180496;28;20091;-79
2023/07/15 05:29:33;;;;;;;3.80;3.25;;;18.60;99.90;;;;;;4183084;28;20059;-79
2023/07/15 05:31:53;;;;;;;6.18;4.68;;;18.80;99.90;;;;;;4182330;28;20117;-83
2023/07/15 05:34:13;;;;;;;4.18;4.07;;;19.00;99.90;;;;;;4170570;28;20052;-83
2023/07/15 05:36:33;;;;;;;3.65;3.45;;;19.10;99.90;;;;;;4169467;28;20391;-83
2023/07/15 05:38:53;;;;;;;4.30;3.92;;;19.10;99.90;;;;;;4172240;28;20087;-83
2023/07/15 05:41:13;;;;;;;3.55;3.45;;;19.20;99.90;;;;;;4183282;28;20275;-82
2023/07/15 05:43:34;;;;;;;6.40;3.92;;;19.30;99.90;;;;;;4185965;28;20075;-82
2023/07/15 05:45:54;;;;;;;3.60;3.40;;;19.40;99.90;;;;;;4184308;28;20117;-82
2023/07/15 05:48:13;;;;;;;6.28;3.97;;;19.50;99.90;;;;;;4169439;28;20386;-82
2023/07/15 05:50:36;;;;;;;3.50;3.10;;;19.50;99.90;;;;;;4182595;28;20064;-82
2023/07/15 05:52:56;;;;;;;3.78;2.92;;;19.60;99.90;;;;;;4182730;28;20144;-82
2023/07/15 05:55:18;;;;;;;3.00;2.67;;;19.80;99.90;;;;;;4183869;28;20359;-83
2023/07/15 05:57:39;;;;;;;2.92;2.70;;;20.00;99.90;;;;;;4182638;28;20048;-82
2023/07/15 05:59:59;;;;;;;4.22;2.45;;;20.20;99.90;;;;;;4179717;28;20080;-81
2023/07/15 06:02:19;;;;;;;3.45;1.95;;;20.30;99.90;;;;;;4183789;28;20110;-81
2023/07/15 06:04:39;;;;;;;5.53;2.80;;;20.50;99.90;;;;;;4183150;28;20129;-81
2023/07/15 06:07:00;;;;;;;2.65;2.45;;;20.70;99.90;;;;;;4184043;28;20264;-81
2023/07/15 06:09:20;;;;;;;6.05;3.08;;;20.90;99.90;;;;;;4185519;28;20087;-81
2023/07/15 06:11:40;;;;;;;2.10;1.90;;;21.10;99.90;;;;;;4183876;28;20083;-81
2023/07/15 06:14:03;;;;;;;6.75;1.65;;;21.40;99.90;;;;;;4182727;28;20067;-81
2023/07/15 06:16:23;;;;;;;;;;;21.70;99.90;;;;;;4185096;28;20048;-81
2023/07/15 06:18:43;;;;;;;7.22;2.47;;;21.90;99.90;;;;;;4185365;28;19924;-81
2023/07/15 06:21:03;;;;;;;2.80;1.83;;;22.10;99.90;;;;;;4184910;28;20052;-81
2023/07/15 06:23:23;;;;;;;9.38;2.60;;;22.30;99.90;;;;;;4185866;28;20061;-81
2023/07/15 06:25:43;;;;;;;3.25;2.05;;;22.50;99.90;;;;;;4187891;28;20048;-79
2023/07/15 06:28:04;;;;;;;2.40;1.63;;;22.90;99.90;;;;;;4186707;28;20061;-80
2023/07/15 06:30:26;;;;;;;2.75;1.90;;;23.30;99.90;;;;;;4180962;28;20276;-79
2023/07/15 06:32:45;;;;;;;1.30;1.20;;;23.60;99.90;;;;;;4177666;28;20075;-79
2023/07/15 06:35:06;;;;;;;3.20;1.42;;;23.70;99.90;;;;;;4163464;28;20119;-80
2023/07/15 06:37:26;;;;;;;7.53;2.13;;;24.00;99.90;;;;;;4181355;28;20121;-79
2023/07/15 06:39:46;;;;;;;2.65;1.20;;;24.20;99.90;;;;;;4185214;28;20236;-80
2023/07/15 06:42:06;;;;;;;2.88;1.40;;;24.40;99.90;;;;;;4183690;28;20063;-79
2023/07/15 06:44:26;;;;;;;2.55;1.63;;;24.50;99.90;;;;;;4173669;28;20398;-79
2023/07/15 06:46:46;;;;;;;5.10;1.60;;;24.70;99.90;;;;;;4187206;28;20051;-79
2023/07/15 06:49:06;;;;;;;2.63;1.50;;;24.90;99.90;;;;;;4171112;28;20060;-80
2023/07/15 06:51:26;;;;;;;2.55;1.40;;;25.10;99.90;;;;;;4184893;28;20055;-79
2023/07/15 06:53:46;;;;;;;2.50;1.10;;;25.30;99.90;;;;;;4169960;28;20041;-79
2023/07/15 06:56:06;;;;;;;2.63;0.90;;;25.60;99.90;;;;;;4182804;28;20381;-80
2023/07/15 06:58:40;;;;;;;2.67;1.42;;;25.50;99.90;;;;;;4182358;28;20106;-79
2023/07/15 07:01:04;;;;;;;3.88;1.35;;;25.60;99.90;;;;;;4182099;28;20051;-80
2023/07/15 07:03:24;;;;;;;3.90;1.00;;;25.90;99.90;;;;;;4164842;28;20264;-80
2023/07/15 07:05:44;;;;;;;2.25;1.00;;;26.00;99.90;;;;;;4162247;28;20399;-80
2023/07/15 07:08:04;;;;;;;6.13;1.55;;;26.20;99.90;;;;;;4179979;28;20089;-79
2023/07/15 07:10:24;;;;;;;1.90;1.23;;;26.40;99.90;;;;;;4183529;28;20080;-80
2023/07/15 07:12:46;;;;;;;2.67;1.30;;;26.50;99.90;;;;;;4183260;28;20052;-79
2023/07/15 07:15:06;;;;;;;2.35;1.00;;;26.70;99.90;;;;;;4173492;28;20091;-80
2023/07/15 07:17:28;;;;;;;4.35;0.80;;;26.80;99.90;;;;;;4168821;28;20088;-79
2023/07/15 07:19:48;;;;;;;1.83;1.35;;;27.10;99.90;;;;;;4183408;28;20404;-80
2023/07/15 07:22:07;;;;;;;2.58;1.75;;;27.20;99.90;;;;;;4183634;28;20043;-80
2023/07/15 07:24:27;;;;;;;0.80;0.80;;;27.40;99.90;;;;;;4184609;28;20346;-80
2023/07/15 07:26:49;;;;;;;2.38;0.90;;;27.60;99.90;;;;;;4170102;28;20391;-80
2023/07/15 07:29:08;;;;;;;1.73;1.00;;;27.80;99.90;;;;;;4185893;28;20441;-80
2023/07/15 07:31:28;;;;;;;0.98;0.98;;;28.10;99.90;;;;;;4185201;28;20378;-80
2023/07/15 07:33:49;;;;;;;1.92;0.90;;;28.40;99.90;;;;;;4182911;28;20052;-80
2023/07/15 07:36:09;;;;;;;9.18;1.00;;;28.80;99.90;;;;;;4164384;28;20320;-80
2023/07/15 07:38:29;;;;;;;1.38;0.90;;;28.60;99.60;;;;;;4180659;28;20248;-80
2023/07/15 07:40:49;;;;;;;5.28;1.10;;;29.00;99.80;;;;;;4176300;28;20379;-80
2023/07/15 07:43:10;;;;;;;4.60;0.98;;;29.30;98.80;;;;;;4163530;28;20045;-80
2023/07/15 07:45:31;;;;;;;3.40;1.52;;;29.20;99.00;;;;;;4176612;28;20425;-80
2023/07/15 07:47:51;;;;;;;2.20;1.30;;;29.30;98.40;;;;;;4180915;28;20071;-80
2023/07/15 07:50:12;;;;;;;2.17;0.90;;;29.30;98.40;;;;;;4180216;28;20044;-80
2023/07/15 07:52:32;;;;;;;4.72;1.23;;;29.30;98.60;;;;;;4185336;28;20048;-76
2023/07/15 07:54:52;;;;;;;2.10;1.00;;;29.40;97.90;;;;;;4182468;28;20063;-76
2023/07/15 07:57:14;;;;;;;5.22;0.80;;;29.80;98.10;;;;;;4183147;28;20087;-76
2023/07/15 07:59:33;;;;;;;4.65;1.00;;;29.90;97.40;;;;;;4182148;28;20051;-76
2023/07/15 08:01:53;;;;;;;2.17;1.35;;;30.00;97.10;;;;;;4181391;28;20068;-76
2023/07/15 08:04:13;;;;;;;2.92;0.98;;;30.10;96.80;;;;;;4180869;28;20107;-76
2023/07/15 08:06:33;;;;;;;1.25;0.98;;;30.30;97.10;;;;;;4179624;28;20056;-80
2023/07/15 08:08:54;;;;;;;5.60;0.95;;;30.60;96.70;;;;;;4178523;28;20055;-80
2023/07/15 08:11:14;;;;;;;1.95;1.00;;;30.90;96.30;;;;;;4163500;28;20312;-80
2023/07/15 08:13:35;;;;;;;1.95;0.80;;;30.80;95.70;;;;;;4181383;28;20060;-80
2023/07/15 08:15:55;;;;;;;2.03;0.88;;;30.50;95.50;;;;;;4180700;28;20422;-80
2023/07/15 08:18:15;;;;;;;5.57;0.85;;;30.50;96.70;;;;;;4181268;28;20045;-80
2023/07/15 08:20:41;;;;;;;2.15;0.80;;;30.80;95.90;;;;;;4183967;28;20252;-81
2023/07/15 08:23:01;;;;;;;3.85;0.90;;;31.10;96.00;;;;;;4182680;28;20060;-80
2023/07/15 08:25:22;;;;;;;1.33;0.80;;;31.20;95.40;;;;;;4184190;28;20068;-81
2023/07/15 08:27:42;;;;;;;1.70;0.80;;;31.10;96.40;;;;;;4186709;28;20087;-80
2023/07/15 08:30:03;;;;;;;3.33;0.80;;;31.30;96.40;;;;;;4188039;28;20052;-80
2023/07/15 08:32:23;;;;;;;1.25;0.80;;;31.00;96.20;;;;;;4175329;28;20061;-81
2023/07/15 08:35:10;;;;;;;2.92;0.90;;;30.80;97.30;;;;;;4187991;28;20087;-81
2023/07/15 08:37:31;;;;;;;9.00;1.20;;;31.30;97.90;;;;;;4187827;28;20087;-80
2023/07/15 08:39:50;;;;;;;2.17;1.08;;;31.40;97.90;;;;;;4184653;28;20079;-80
2023/07/15 08:42:10;;;;;;;3.33;0.80;;;31.50;97.60;;;;;;4182408;28;20044;-80
2023/07/15 08:44:30;;;;;;;2.70;1.00;;;31.70;97.70;;;;;;4179104;28;20112;-80
2023/07/15 08:46:52;;;;;;;2.35;0.80;;;32.10;97.30;;;;;;4168196;28;20275;-81
2023/07/15 08:49:12;;;;;;;7.80;1.15;;;31.60;96.90;;;;;;4180651;28;20091;-81
2023/07/15 08:51:34;;;;;;;2.50;0.90;;;32.00;99.20;;;;;;4184370;28;20044;-81
2023/07/15 08:53:56;;;;;;;1.10;0.80;;;32.20;97.60;;;;;;4184054;28;20052;-81
2023/07/15 08:56:16;;;;;;;5.63;0.90;;;32.30;97.80;;;;;;4185378;28;20340;-81
2023/07/15 08:58:36;;;;;;;4.15;1.08;;;31.90;97.80;;;;;;4184219;28;20056;-81
2023/07/15 09:00:56;;;;;;;2.05;0.90;;;32.10;99.10;;;;;;4184709;28;20060;-81
2023/07/15 09:03:16;;;;;;;3.92;1.30;;;32.10;98.00;;;;;;4185376;28;20090;-84
2023/07/15 09:05:36;;;;;;;4.80;1.55;;;31.50;98.70;;;;;;4183259;28;20109;-84
2023/07/15 09:07:58;;;;;;;5.70;1.00;;;31.80;98.70;;;;;;4166538;28;20065;-84
2023/07/15 09:10:18;;;;;;;2.17;0.82;;;32.00;99.30;;;;;;4184311;28;20052;-84
2023/07/15 09:12:43;;;;;;;5.70;0.80;;;32.20;98.80;;;;;;4168522;28;20076;-84
2023/07/15 09:15:06;;;;;;;4.03;1.00;;;32.30;97.80;;;;;;4181006;28;20579;-84
2023/07/15 09:17:26;;;;;;;2.55;0.80;;;32.50;98.10;;;;;;4184860;28;20112;-85
2023/07/15 09:19:47;;;;;;;2.35;1.00;;;32.40;98.60;;;;;;4181688;28;20057;-84
2023/07/15 09:22:08;;;;;;;4.40;0.90;;;32.50;98.10;;;;;;4182859;28;20319;-85
2023/07/15 09:24:30;;;;;;;3.20;0.98;;;32.60;97.80;;;;;;4184544;28;20067;-85
2023/07/15 09:26:54;;;;;;;2.47;0.90;;;32.40;97.90;;;;;;4184962;28;20248;-86
2023/07/15 09:29:14;;;;;;;3.33;0.93;;;32.70;96.60;;;;;;4168681;28;20053;-85
2023/07/15 09:31:38;;;;;;;1.98;1.15;;;32.60;97.20;;;;;;4171577;28;20102;-85
2023/07/15 09:34:03;;;;;;;3.10;0.90;;;32.60;97.20;;;;;;4173892;28;20056;-84
2023/07/15 09:36:31;;;;;;;1.65;1.00;;;32.20;97.70;;;;;;4174568;28;20324;-83
2023/07/15 09:38:53;;;;;;;5.50;0.80;;;32.20;97.50;;;;;;4185286;28;20075;-85
2023/07/15 09:41:19;;;;;;;3.23;0.80;;;31.70;96.90;;;;;;4187532;28;20106;-84
2023/07/15 09:43:47;;;;;;;2.67;1.10;;;31.60;96.30;;;;;;4181645;28;20391;-84
2023/07/15 09:46:08;;;;;;;3.95;1.02;;;32.00;97.20;;;;;;4181913;28;20052;-84
2023/07/15 09:48:30;;;;;;;4.63;1.05;;;32.40;97.20;;;;;;4183905;28;20105;-84
2023/07/15 09:50:50;;;;;;;1.63;0.73;;;32.50;96.40;;;;;;4182807;28;20084;-84
2023/07/15 09:53:11;;;;;;;1.85;0.80;;;32.40;96.50;;;;;;4181531;28;20125;-84
2023/07/15 09:55:32;;;;;;;3.65;0.80;;;32.40;97.30;;;;;;4167866;28;20072;-84
2023/07/15 09:58:01;;;;;;;3.73;1.00;;;31.90;96.30;;;;;;4183013;28;20055;-84
2023/07/15 10:00:23;;;;;;;1.08;0.70;;;32.10;96.60;;;;;;4184706;28;20060;-84
2023/07/15 10:02:52;;;;;;;2.85;0.85;;;32.30;96.00;;;;;;4183380;28;20048;-84
2023/07/15 10:05:13;;;;;;;4.60;0.80;;;32.50;96.20;;;;;;4184971;28;20048;-84
2023/07/15 10:07:33;;;;;;;1.67;1.23;;;32.90;96.10;;;;;;4186674;28;20080;-84
2023/07/15 10:09:53;;;;;;;1.33;0.80;;;33.00;96.20;;;;;;4183846;28;20073;-84
2023/07/15 10:12:13;;;;;;;1.35;0.75;;;33.30;95.00;;;;;;4183443;28;20113;-82
2023/07/15 10:14:33;;;;;;;5.15;0.73;;;33.50;95.40;;;;;;4186557;28;20113;-81
2023/07/15 10:17:10;;;;;;;2.15;0.80;;;33.20;94.80;;;;;;4185615;28;20405;-81
2023/07/15 10:20:04;;;;;;;0.98;0.68;;;33.20;96.20;;;;;;4179743;28;20324;-81
2023/07/15 10:22:33;;;;;;;3.28;0.70;;;33.70;95.10;;;;;;4170523;28;20068;-82
2023/07/15 10:24:55;;;;;;;3.80;0.80;;;33.70;93.50;;;;;;4183205;28;20044;-81
2023/07/15 10:27:17;;;;;;;0.60;0.60;;;34.00;95.00;;;;;;4182088;28;20076;-82
2023/07/15 10:29:39;;;;;;;1.15;0.70;;;34.00;92.80;;;;;;4183347;28;20079;-81
2023/07/15 10:32:09;;;;;;;2.50;0.90;;;33.90;92.90;;;;;;4184875;28;20116;-82
2023/07/15 10:34:50;;;;;;;2.15;0.70;;;33.60;93.90;;;;;;4184925;28;20036;-81
2023/07/15 10:37:11;;;;;;;2.58;0.80;;;33.30;94.00;;;;;;4182429;28;20048;-81
2023/07/15 10:39:34;;;;;;;1.55;0.73;;;33.60;94.40;;;;;;4169566;28;20077;-81
2023/07/15 10:41:54;;;;;;;2.03;0.93;;;33.70;93.80;;;;;;4184184;28;20082;-81
2023/07/15 10:44:25;;;;;;;1.02;0.57;;;33.70;92.00;;;;;;4185400;28;20059;-81
2023/07/15 10:47:06;;;;;;;0.68;0.60;;;33.40;88.60;;;;;;4185330;28;20052;-81
2023/07/15 10:49:26;;;;;;;1.00;0.50;;;33.10;88.60;;;;;;4181770;28;20071;-81
2023/07/15 10:51:46;;;;;;;1.73;0.73;;;33.40;90.00;;;;;;4181119;28;20056;-81
2023/07/15 10:54:06;;;;;;;4.95;0.90;;;33.40;90.40;;;;;;4182237;28;20047;-81
2023/07/15 10:56:27;;;;;;;0.90;0.70;;;33.90;92.10;;;;;;4179731;28;20390;-81
2023/07/15 10:58:46;;;;;;;0.50;0.47;;;34.60;89.60;;;;;;4180308;28;20056;-81
2023/07/15 11:01:09;;;;;;;0.60;0.50;;;34.10;84.80;;;;;;4182250;28;20047;-81
2023/07/15 11:03:31;;;;;;;0.80;0.50;;;34.20;88.20;;;;;;4182679;28;20048;-81
2023/07/15 11:05:51;;;;;;;1.85;0.50;;;34.00;85.60;;;;;;4183944;28;20048;-81
2023/07/15 11:08:11;;;;;;;1.50;0.50;;;34.00;82.60;;;;;;4183289;28;20280;-81
2023/07/15 11:10:34;;;;;;;0.60;0.50;;;33.90;82.70;;;;;;4183506;28;20076;-81
2023/07/15 11:12:54;;;;;;;0.77;0.50;;;33.90;85.60;;;;;;4182578;28;20114;-81
2023/07/15 11:15:19;;;;;;;0.85;0.50;;;34.30;83.50;;;;;;4185166;28;20051;-81
2023/07/15 11:17:40;;;;;;;2.63;0.50;;;34.50;83.90;;;;;;4183797;28;20121;-81
2023/07/15 11:20:00;;;;;;;1.13;0.50;;;33.60;82.20;;;;;;4184588;28;20359;-83
2023/07/15 11:22:21;;;;;;;1.65;0.50;;;34.00;82.00;;;;;;4186339;28;20059;-81
2023/07/15 11:24:41;;;;;;;0.50;0.50;;;34.00;81.80;;;;;;4184959;28;20060;-81
2023/07/15 11:27:01;;;;;;;0.95;0.50;;;34.20;82.80;;;;;;4184213;28;20060;-81
2023/07/15 11:29:24;;;;;;;1.25;0.60;;;33.90;84.40;;;;;;4179373;28;20087;-80
2023/07/15 11:31:52;;;;;;;7.68;0.68;;;34.30;83.50;;;;;;4180918;28;20044;-81
2023/07/15 11:34:12;;;;;;;0.50;0.40;;;34.90;81.90;;;;;;4181461;28;20052;-81
2023/07/15 11:36:32;;;;;;;0.50;0.50;;;34.20;81.00;;;;;;4184345;28;20051;-81
2023/07/15 11:38:52;;;;;;;0.63;0.52;;;34.50;82.90;;;;;;4180408;28;20048;-81
2023/07/15 11:41:12;;;;;;;1.67;0.47;;;34.80;75.10;;;;;;4182934;28;20090;-81
2023/07/15 11:43:34;;;;;;;1.45;0.35;;;35.10;74.60;;;;;;4181568;28;20103;-95
2023/07/15 11:45:59;;;;;;;0.98;0.40;;;35.20;74.30;;;;;;4181205;28;20075;-81
2023/07/15 11:48:21;;;;;;;1.20;0.50;;;34.70;71.90;;;;;;4182598;28;20060;-81
2023/07/15 11:50:41;;;;;;;0.40;0.30;;;34.20;73.60;;;;;;4184385;28;20082;-81
2023/07/15 11:53:02;;;;;;;0.60;0.50;;;34.30;72.10;;;;;;4181259;28;20053;-82
2023/07/15 11:55:24;;;;;;;1.42;0.40;;;34.60;71.50;;;;;;4179264;28;20364;-81
2023/07/15 11:57:45;;;;;;;0.82;0.30;;;34.90;70.80;;;;;;4180405;28;20047;-81
2023/07/15 12:00:06;;;;;;;1.00;0.40;;;35.50;75.40;;;;;;4180652;28;20092;-81
2023/07/15 12:02:26;;;;;;;1.20;0.40;;;35.40;71.40;;;;;;4163157;28;20081;-81
2023/07/15 12:04:49;;;;;;;2.55;0.60;;;35.40;73.00;;;;;;4180344;28;20064;-81
2023/07/15 12:07:09;;;;;;;0.52;0.50;;;35.30;71.30;;;;;;4182422;28;20363;-81
2023/07/15 12:09:31;;;;;;;0.40;0.30;;;35.30;73.60;;;;;;4183301;28;20083;-81
2023/07/15 12:11:51;;;;;;;0.40;0.40;;;36.10;74.50;;;;;;4183202;28;20105;-81
2023/07/15 12:14:12;;;;;;;1.67;0.40;;;36.50;74.60;;;;;;4183546;28;20425;-81
2023/07/15 12:16:33;;;;;;;1.58;0.50;;;36.70;68.80;;;;;;4181908;28;20079;-81